Time;durP1;ratioP1;P1;durP2;ratioP2;P2;SDS_P1;SDS_P2;PMS_P1;PMS_P2;Temp;Humidity;BMP_temperature;BMP_pressure;BME280_temperature;BME280_humidity;BME280_pressure;Samples;Min_cycle;Max_cycle;Signal;HPM_P1;HPM_P2
2023/07/30 00:00:26;;;;;;;3.30;2.35;;;;;;;23.48;49.72;98674.84;5068075;28;20045;-68
2023/07/30 00:02:52;;;;;;;3.22;2.40;;;;;;;23.50;49.57;98681.75;5067623;28;20190;-69
2023/07/30 00:05:19;;;;;;;3.45;2.50;;;;;;;23.52;49.90;98670.75;5067662;28;20056;-67
2023/07/30 00:07:46;;;;;;;3.70;2.33;;;;;;;23.53;49.68;98667.03;5067928;28;20040;-67
2023/07/30 00:10:13;;;;;;;3.03;2.20;;;;;;;23.49;49.94;98669.25;5067746;28;20052;-67
2023/07/30 00:12:41;;;;;;;3.92;2.47;;;;;;;23.46;50.20;98669.63;5067678;28;20068;-67
2023/07/30 00:15:09;;;;;;;3.75;2.42;;;;;;;23.31;50.17;98634.44;5049923;28;20041;-67
2023/07/30 00:17:35;;;;;;;3.38;2.60;;;;;;;23.43;50.10;98666.44;5067340;28;20041;-66
2023/07/30 00:20:03;;;;;;;3.58;2.40;;;;;;;23.41;50.19;98660.38;5067468;28;20094;-66
2023/07/30 00:22:29;;;;;;;3.90;2.72;;;;;;;23.40;50.14;98650.56;5067128;28;20125;-66
2023/07/30 00:24:56;;;;;;;2.97;2.03;;;;;;;23.31;50.44;98656.06;5066928;28;20061;-66
2023/07/30 00:27:23;;;;;;;4.60;2.42;;;;;;;23.34;50.38;98655.69;5067386;28;20045;-66
2023/07/30 00:29:51;;;;;;;3.42;2.00;;;;;;;23.33;50.39;98662.13;5067352;28;20044;-66
2023/07/30 00:32:17;;;;;;;3.47;2.45;;;;;;;23.24;50.45;98643.44;5049554;28;20052;-67
2023/07/30 00:34:44;;;;;;;3.00;2.00;;;;;;;22.88;50.52;98590.00;5067337;28;20053;-68
2023/07/30 00:37:11;;;;;;;3.33;2.40;;;;;;;23.24;50.69;98659.66;5067597;28;20063;-70
2023/07/30 00:39:38;;;;;;;3.40;2.20;;;;;;;23.24;50.44;98655.06;5066923;28;20048;-70
2023/07/30 00:42:05;;;;;;;2.80;2.00;;;;;;;23.23;50.58;98645.28;5049379;28;20238;-70
2023/07/30 00:44:32;;;;;;;3.03;2.17;;;;;;;23.16;51.12;98652.44;5049280;28;20124;-69
2023/07/30 00:47:00;;;;;;;4.05;2.20;;;;;;;23.13;50.91;98646.56;5048722;28;20045;-70
2023/07/30 00:49:27;;;;;;;2.80;1.90;;;;;;;23.15;50.83;98639.94;5067034;28;20044;-70
2023/07/30 00:51:56;;;;;;;3.97;2.30;;;;;;;22.98;50.82;98617.63;5066961;28;20041;-69
2023/07/30 00:54:23;;;;;;;3.03;1.92;;;;;;;23.08;51.17;98641.69;5066945;28;20319;-70
2023/07/30 00:56:52;;;;;;;3.15;2.28;;;;;;;23.12;50.97;98636.78;5066865;28;20041;-70
2023/07/30 00:59:19;;;;;;;4.10;2.25;;;;;;;23.18;50.81;98644.16;5066795;28;20103;-70
2023/07/30 01:01:47;;;;;;;3.35;2.13;;;;;;;23.09;51.22;98637.13;5066607;28;20307;-68
2023/07/30 01:04:16;;;;;;;3.58;2.33;;;;;;;23.02;51.27;98643.25;5048850;28;20041;-70
2023/07/30 01:06:43;;;;;;;3.10;2.13;;;;;;;22.98;51.47;98638.41;5048675;28;20045;-70
2023/07/30 01:09:10;;;;;;;4.05;2.50;;;;;;;23.01;51.31;98624.53;5066801;28;20231;-70
2023/07/30 01:11:38;;;;;;;3.67;2.00;;;;;;;23.06;51.23;98632.94;5066547;28;20040;-70
2023/07/30 01:14:06;;;;;;;3.30;2.20;;;;;;;22.97;51.48;98625.91;5066183;28;20041;-69
2023/07/30 01:16:33;;;;;;;3.03;1.95;;;;;;;22.91;51.52;98622.06;5048733;28;20347;-69
2023/07/30 01:19:04;;;;;;;2.85;1.90;;;;;;;22.93;51.33;98621.91;5066154;28;20111;-69
2023/07/30 01:21:32;;;;;;;2.97;1.92;;;;;;;22.94;51.45;98626.28;5066655;28;20041;-69
2023/07/30 01:23:59;;;;;;;3.53;2.30;;;;;;;22.91;51.33;98624.78;5066132;28;20064;-70
2023/07/30 01:26:41;;;;;;;3.10;2.15;;;;;;;22.91;51.37;98632.03;5066611;28;20044;-70
2023/07/30 01:29:12;;;;;;;3.70;2.78;;;;;;;22.84;51.43;98631.91;5065911;28;20049;-69
2023/07/30 01:31:41;;;;;;;3.10;2.15;;;;;;;22.80;51.51;98630.59;5066243;28;20037;-69
2023/07/30 01:34:10;;;;;;;3.17;2.40;;;;;;;22.80;51.70;98629.75;5048486;28;20265;-69
2023/07/30 01:36:40;;;;;;;4.05;2.50;;;;;;;22.17;51.72;98556.03;5066166;28;20057;-70
2023/07/30 01:39:10;;;;;;;3.28;2.35;;;;;;;22.50;51.91;98594.47;5066090;28;20204;-70
2023/07/30 01:41:37;;;;;;;3.08;2.25;;;;;;;22.69;51.86;98628.31;5066026;28;20064;-70
2023/07/30 01:44:04;;;;;;;3.20;2.25;;;;;;;22.70;51.91;98622.75;5065719;28;20099;-70
2023/07/30 01:46:31;;;;;;;3.70;2.25;;;;;;;22.67;52.00;98623.09;5066175;28;20108;-70
2023/07/30 01:48:57;;;;;;;3.25;2.35;;;;;;;22.68;51.94;98621.22;5048351;28;20079;-70
2023/07/30 01:51:24;;;;;;;5.07;2.13;;;;;;;22.66;52.10;98628.69;5066221;28;20268;-70
2023/07/30 01:53:52;;;;;;;2.85;2.05;;;;;;;22.61;52.12;98633.78;5065843;28;20048;-70
2023/07/30 01:56:19;;;;;;;3.17;2.30;;;;;;;22.61;52.18;98636.47;5065876;28;20206;-70
2023/07/30 01:58:46;;;;;;;3.65;2.03;;;;;;;22.67;51.92;98635.75;5064863;28;20318;-70
2023/07/30 02:01:12;;;;;;;3.13;2.22;;;;;;;22.64;51.94;98636.13;5047867;28;20090;-70
2023/07/30 02:03:39;;;;;;;3.13;2.20;;;;;;;22.64;51.91;98638.81;5065164;28;20048;-71
2023/07/30 02:06:06;;;;;;;3.65;2.10;;;;;;;22.61;52.21;98640.00;5065757;28;20235;-70
2023/07/30 02:08:33;;;;;;;2.92;2.03;;;;;;;22.58;52.15;98639.53;5065618;28;20094;-70
2023/07/30 02:11:01;;;;;;;3.08;2.08;;;;;;;22.64;52.05;98642.34;5065719;28;20083;-70
2023/07/30 02:13:28;;;;;;;3.22;2.25;;;;;;;22.58;51.99;98634.97;5065949;28;20041;-70
2023/07/30 02:15:54;;;;;;;3.88;2.63;;;;;;;22.60;51.93;98632.09;5065646;28;20045;-70
2023/07/30 02:18:21;;;;;;;3.08;2.28;;;;;;;22.62;51.79;98622.78;5047850;28;20063;-70
2023/07/30 02:20:48;;;;;;;3.10;2.10;;;;;;;22.60;51.97;98624.00;5065592;28;20041;-70
2023/07/30 02:23:16;;;;;;;3.53;2.00;;;;;;;22.53;52.08;98628.38;5065333;28;20285;-70
2023/07/30 02:25:43;;;;;;;2.95;2.08;;;;;;;22.59;51.90;98616.91;5065278;28;20128;-70
2023/07/30 02:28:11;;;;;;;2.90;2.20;;;;;;;22.39;52.02;98592.16;5048742;28;20285;-70
2023/07/30 02:30:38;;;;;;;3.53;2.20;;;;;;;22.56;51.97;98615.41;5047730;28;20044;-70
2023/07/30 02:33:05;;;;;;;3.25;2.10;;;;;;;22.45;52.12;98591.47;5065154;28;20057;-69
2023/07/30 02:35:31;;;;;;;3.13;2.33;;;;;;;22.58;51.86;98613.38;5065725;28;20037;-70
2023/07/30 02:37:58;;;;;;;3.10;2.22;;;;;;;22.60;51.85;98627.53;5065406;28;20041;-70
2023/07/30 02:40:25;;;;;;;3.75;2.10;;;;;;;22.47;52.21;98635.34;5065039;28;20367;-69
2023/07/30 02:42:51;;;;;;;3.70;2.20;;;;;;;22.50;52.25;98645.78;5047651;28;20045;-70
2023/07/30 02:45:20;;;;;;;3.10;1.98;;;;;;;22.45;52.27;98636.53;5065366;28;20045;-70
2023/07/30 02:47:46;;;;;;;3.30;2.55;;;;;;;22.40;52.20;98629.81;5064888;28;20048;-70
2023/07/30 02:50:13;;;;;;;3.30;2.38;;;;;;;22.27;52.38;98628.66;5047584;28;20037;-70
2023/07/30 02:52:39;;;;;;;2.97;2.08;;;;;;;22.41;52.47;98630.66;5065630;28;20044;-70
2023/07/30 02:55:07;;;;;;;3.20;2.20;;;;;;;22.43;52.33;98631.31;5065570;28;20107;-70
2023/07/30 02:57:33;;;;;;;3.25;2.22;;;;;;;22.42;52.12;98625.06;5065271;28;20236;-70
2023/07/30 03:00:00;;;;;;;3.38;2.30;;;;;;;22.23;52.36;98590.41;5064953;28;20251;-70
2023/07/30 03:02:28;;;;;;;3.30;2.15;;;;;;;22.29;52.30;98607.75;5065189;28;20052;-70
2023/07/30 03:04:55;;;;;;;3.42;2.55;;;;;;;22.49;51.92;98627.91;5064917;28;20045;-70
2023/07/30 03:07:22;;;;;;;3.20;2.10;;;;;;;22.47;52.19;98621.84;5064917;28;20040;-70
2023/07/30 03:09:49;;;;;;;2.70;1.98;;;;;;;22.45;52.28;98626.56;5065037;28;20056;-71
2023/07/30 03:12:15;;;;;;;2.85;2.00;;;;;;;22.04;52.09;98570.09;5068639;28;20056;-70
2023/07/30 03:14:42;;;;;;;3.03;2.10;;;;;;;22.44;52.09;98630.28;5068572;28;20331;-70
2023/07/30 03:17:09;;;;;;;3.15;1.95;;;;;;;22.41;52.11;98627.94;5068828;28;20061;-70
2023/07/30 03:19:37;;;;;;;4.80;2.70;;;;;;;22.08;52.34;98590.31;5069025;28;20045;-70
2023/07/30 03:22:04;;;;;;;3.15;1.90;;;;;;;22.42;52.24;98629.63;5068964;28;20041;-71
2023/07/30 03:24:31;;;;;;;3.90;2.45;;;;;;;22.33;52.20;98628.81;5068452;28;20055;-71
2023/07/30 03:26:57;;;;;;;3.72;2.63;;;;;;;22.31;52.62;98630.00;5050900;28;20247;-71
2023/07/30 03:29:24;;;;;;;3.10;2.17;;;;;;;22.27;52.49;98617.88;5068796;28;20089;-69
2023/07/30 03:31:51;;;;;;;3.70;2.30;;;;;;;22.33;52.41;98615.31;5068397;28;20304;-69
2023/07/30 03:34:17;;;;;;;3.88;2.08;;;;;;;22.28;52.59;98617.69;5050691;28;20293;-69
2023/07/30 03:36:46;;;;;;;3.45;2.58;;;;;;;22.31;52.47;98627.31;5050877;28;20297;-69
2023/07/30 03:39:12;;;;;;;4.07;2.33;;;;;;;22.26;52.57;98617.03;5068299;28;20104;-69
2023/07/30 03:41:39;;;;;;;5.32;2.25;;;;;;;22.32;52.59;98615.47;5050576;28;20324;-69
2023/07/30 03:44:06;;;;;;;3.95;2.25;;;;;;;22.30;52.55;98622.91;5051557;28;20037;-69
2023/07/30 03:46:32;;;;;;;3.55;2.38;;;;;;;22.27;52.68;98623.28;5067969;28;20044;-69
2023/07/30 03:48:59;;;;;;;4.53;1.88;;;;;;;22.15;52.68;98597.69;5068122;28;20163;-69
2023/07/30 03:51:26;;;;;;;3.65;2.40;;;;;;;22.33;52.63;98627.97;5068159;28;20048;-69
2023/07/30 03:53:54;;;;;;;3.05;2.20;;;;;;;22.23;52.90;98621.94;5067883;28;20090;-69
2023/07/30 03:56:20;;;;;;;3.25;2.28;;;;;;;22.27;52.71;98623.28;5068050;28;20081;-68
2023/07/30 03:58:47;;;;;;;3.28;2.42;;;;;;;22.08;52.85;98602.97;5068237;28;20044;-68
2023/07/30 04:01:14;;;;;;;3.72;2.42;;;;;;;22.26;52.88;98632.38;5067727;28;20301;-69
2023/07/30 04:03:40;;;;;;;3.13;2.15;;;;;;;22.26;52.65;98627.81;5050077;28;20098;-68
2023/07/30 04:06:07;;;;;;;5.25;2.47;;;;;;;22.26;52.71;98640.47;5067735;28;20045;-68
2023/07/30 04:08:34;;;;;;;4.22;2.28;;;;;;;22.25;52.75;98636.09;5067414;28;20228;-68
2023/07/30 04:11:02;;;;;;;3.38;2.30;;;;;;;22.20;52.93;98625.84;5068298;28;20044;-70
2023/07/30 04:13:29;;;;;;;3.40;2.38;;;;;;;22.25;52.87;98631.53;5068058;28;20052;-70
2023/07/30 04:15:56;;;;;;;3.08;2.13;;;;;;;22.32;52.60;98637.09;5050027;28;20055;-70
2023/07/30 04:18:23;;;;;;;3.45;2.35;;;;;;;22.05;53.02;98597.91;5049912;28;20041;-70
2023/07/30 04:20:49;;;;;;;3.83;2.15;;;;;;;22.29;52.88;98624.78;5049742;28;20116;-70
2023/07/30 04:23:16;;;;;;;3.25;2.15;;;;;;;22.28;52.94;98638.44;5066023;28;20312;-70
2023/07/30 04:25:43;;;;;;;3.58;2.22;;;;;;;22.22;53.16;98629.19;5067508;28;20095;-70
2023/07/30 04:28:11;;;;;;;3.70;2.53;;;;;;;22.24;53.13;98640.66;5067628;28;20104;-70
2023/07/30 04:30:38;;;;;;;3.40;2.47;;;;;;;22.22;53.26;98634.59;5050460;28;20045;-70
2023/07/30 04:33:05;;;;;;;3.45;2.28;;;;;;;22.05;53.18;98609.53;5067694;28;20048;-70
2023/07/30 04:35:31;;;;;;;3.42;2.35;;;;;;;21.64;53.39;98544.09;5067654;28;20044;-70
2023/07/30 04:37:58;;;;;;;3.13;2.40;;;;;;;22.18;53.48;98637.81;5049562;28;20297;-70
2023/07/30 04:40:25;;;;;;;3.47;2.50;;;;;;;22.21;53.45;98634.78;5066965;28;20193;-69
2023/07/30 04:42:52;;;;;;;3.70;2.95;;;;;;;22.06;53.76;98624.72;5067216;28;20048;-70
2023/07/30 04:45:20;;;;;;;2.92;2.30;;;;;;;22.24;53.42;98640.66;5049401;28;20043;-70
2023/07/30 04:47:46;;;;;;;3.47;2.33;;;;;;;22.21;53.56;98641.00;5066837;28;20098;-70
2023/07/30 04:50:13;;;;;;;4.63;2.33;;;;;;;22.05;53.84;98614.94;5050356;28;20343;-69
2023/07/30 04:52:40;;;;;;;3.55;2.53;;;;;;;22.19;53.91;98647.59;5066766;28;20091;-70
2023/07/30 04:55:08;;;;;;;4.35;2.70;;;;;;;22.01;53.86;98618.16;5050324;28;20219;-70
2023/07/30 04:57:35;;;;;;;3.17;2.35;;;;;;;22.08;53.64;98619.16;5067385;28;20041;-70
2023/07/30 05:00:01;;;;;;;3.50;2.53;;;;;;;22.22;53.91;98658.03;5067205;28;20056;-71
2023/07/30 05:02:31;;;;;;;3.60;2.53;;;;;;;22.19;53.95;98650.31;5049614;28;20095;-71
2023/07/30 05:04:57;;;;;;;3.35;2.40;;;;;;;21.77;54.08;98589.41;5066254;28;20312;-70
2023/07/30 05:07:24;;;;;;;3.50;2.33;;;;;;;22.22;53.93;98664.28;5048924;28;20313;-71
2023/07/30 05:09:51;;;;;;;3.92;2.08;;;;;;;22.21;53.96;98661.75;5066364;28;20224;-70
2023/07/30 05:12:18;;;;;;;3.35;2.47;;;;;;;22.18;54.15;98667.50;5048902;28;20041;-70
2023/07/30 05:14:44;;;;;;;2.70;2.00;;;;;;;22.22;54.01;98664.28;5048811;28;20050;-70
2023/07/30 05:17:11;;;;;;;3.60;2.42;;;;;;;22.22;54.10;98668.84;5066534;28;20095;-70
2023/07/30 05:19:39;;;;;;;4.97;2.00;;;;;;;22.24;53.91;98669.50;5066550;28;20047;-70
2023/07/30 05:22:07;;;;;;;3.60;2.17;;;;;;;22.10;53.84;98641.41;5066456;28;20056;-70
2023/07/30 05:24:36;;;;;;;3.72;2.60;;;;;;;21.26;54.12;98516.09;5045527;28;20053;-71
2023/07/30 05:27:03;;;;;;;4.20;2.50;;;;;;;22.20;53.92;98657.38;5046703;28;20072;-70
2023/07/30 05:29:30;;;;;;;3.25;2.22;;;;;;;22.20;54.07;98662.78;5046250;28;20045;-71
2023/07/30 05:31:57;;;;;;;3.08;2.15;;;;;;;22.19;54.13;98672.72;5046020;28;20108;-71
2023/07/30 05:34:23;;;;;;;3.20;2.20;;;;;;;22.19;54.38;98669.19;5046375;28;20046;-70
2023/07/30 05:36:51;;;;;;;3.03;1.90;;;;;;;22.04;54.66;98639.41;5045123;28;20037;-71
2023/07/30 05:39:18;;;;;;;4.22;2.30;;;;;;;22.19;55.18;98659.25;5046181;28;20099;-71
2023/07/30 05:41:45;;;;;;;3.22;2.30;;;;;;;22.20;55.54;98651.97;5046153;28;20119;-71
2023/07/30 05:44:11;;;;;;;4.20;2.95;;;;;;;22.08;55.84;98624.53;5046393;28;20068;-71
2023/07/30 05:46:38;;;;;;;3.50;2.45;;;;;;;22.17;55.96;98647.78;5044778;28;20092;-71
2023/07/30 05:49:05;;;;;;;3.47;2.40;;;;;;;22.06;56.31;98611.22;5045754;28;20059;-70
2023/07/30 05:51:32;;;;;;;3.63;2.72;;;;;;;22.22;56.43;98647.25;5045715;28;20045;-71
2023/07/30 05:54:00;;;;;;;3.38;2.30;;;;;;;22.22;55.90;98640.00;5045807;28;20201;-71
2023/07/30 05:56:26;;;;;;;2.83;2.20;;;;;;;22.19;56.10;98631.41;5044783;28;20088;-71
2023/07/30 05:58:53;;;;;;;3.50;2.30;;;;;;;22.13;56.07;98640.22;5044781;28;20034;-71
2023/07/30 06:01:20;;;;;;;3.65;2.63;;;;;;;21.87;55.87;98600.84;5044757;28;20118;-70
2023/07/30 06:03:47;;;;;;;2.97;2.00;;;;;;;22.00;55.96;98622.72;5045566;28;20065;-71
2023/07/30 06:06:14;;;;;;;2.80;2.10;;;;;;;22.17;55.47;98655.03;5045541;28;20048;-70
2023/07/30 06:08:40;;;;;;;3.60;2.63;;;;;;;21.97;55.29;98625.78;5045964;28;20045;-71
2023/07/30 06:11:08;;;;;;;3.60;2.58;;;;;;;22.10;55.17;98661.13;5045193;28;20045;-70
2023/07/30 06:13:35;;;;;;;3.75;2.30;;;;;;;22.08;55.14;98668.56;5044299;28;20045;-70
2023/07/30 06:16:02;;;;;;;3.33;2.45;;;;;;;21.48;54.91;98560.34;5045695;28;20049;-71
2023/07/30 06:18:28;;;;;;;3.45;2.30;;;;;;;22.12;54.90;98673.59;5045947;28;20273;-71
2023/07/30 06:20:55;;;;;;;3.30;2.10;;;;;;;22.10;54.79;98671.09;5045360;28;20220;-70
2023/07/30 06:23:22;;;;;;;3.35;2.15;;;;;;;22.19;54.48;98674.59;5047187;28;20091;-71
2023/07/30 06:25:49;;;;;;;3.78;2.58;;;;;;;22.26;54.48;98689.06;5065557;28;20045;-71
2023/07/30 06:28:17;;;;;;;4.13;2.30;;;;;;;22.14;54.61;98688.59;5047758;28;20250;-70
2023/07/30 06:30:44;;;;;;;3.22;2.10;;;;;;;22.16;54.80;98683.03;5065400;28;20208;-69
2023/07/30 06:33:10;;;;;;;4.75;2.40;;;;;;;22.07;55.07;98688.47;5065175;28;20048;-70
2023/07/30 06:35:37;;;;;;;4.30;2.40;;;;;;;21.94;55.14;98657.66;5047572;28;20041;-70
2023/07/30 06:38:04;;;;;;;3.20;2.50;;;;;;;21.75;55.36;98630.03;5064907;28;20051;-70
2023/07/30 06:40:31;;;;;;;3.30;2.20;;;;;;;22.06;55.28;98686.78;5065351;28;20048;-70
2023/07/30 06:42:57;;;;;;;4.05;2.53;;;;;;;21.99;55.53;98679.56;5065275;28;20047;-69
2023/07/30 06:45:25;;;;;;;2.83;2.00;;;;;;;21.89;55.54;98658.16;5065965;28;20044;-69
2023/07/30 06:47:52;;;;;;;4.05;2.20;;;;;;;21.92;56.20;98686.66;5051585;28;20071;-70
2023/07/30 06:50:19;;;;;;;2.80;1.83;;;;;;;21.95;56.08;98684.44;5069399;28;20047;-70
2023/07/30 06:52:46;;;;;;;2.83;1.95;;;;;;;21.92;56.12;98700.97;5051473;28;20135;-71
2023/07/30 06:55:12;;;;;;;2.90;2.13;;;;;;;21.92;56.25;98681.25;5068997;28;20052;-71
2023/07/30 06:57:39;;;;;;;2.60;1.83;;;;;;;21.80;56.48;98696.97;5069688;28;20079;-71
2023/07/30 07:00:07;;;;;;;2.90;1.60;;;;;;;21.82;56.65;98692.25;5068898;28;20108;-69
2023/07/30 07:02:36;;;;;;;3.17;1.83;;;;;;;21.63;56.71;98650.28;5069034;28;20091;-68
2023/07/30 07:05:03;;;;;;;2.90;1.85;;;;;;;21.66;57.21;98695.78;5051919;28;20045;-68
2023/07/30 07:07:30;;;;;;;2.53;1.63;;;;;;;21.61;57.61;98702.69;5068962;28;20044;-70
2023/07/30 07:09:57;;;;;;;2.38;1.50;;;;;;;21.64;57.60;98687.03;5068940;28;20232;-70
2023/07/30 07:12:24;;;;;;;2.20;1.70;;;;;;;21.49;58.07;98702.19;5051171;28;20355;-70
2023/07/30 07:14:50;;;;;;;2.60;1.67;;;;;;;21.35;58.84;98711.81;5068580;28;20091;-70
2023/07/30 07:17:17;;;;;;;3.17;1.92;;;;;;;21.10;59.76;98678.63;5068846;28;20056;-70
2023/07/30 07:19:45;;;;;;;3.72;1.50;;;;;;;21.33;60.10;98696.81;5068606;28;20052;-70
2023/07/30 07:22:12;;;;;;;4.90;2.25;;;;;;;21.12;61.42;98691.94;5068419;28;20040;-71
2023/07/30 07:24:39;;;;;;;2.85;1.90;;;;;;;21.33;62.39;98703.06;5068340;28;20052;-70
2023/07/30 07:27:06;;;;;;;3.88;2.20;;;;;;;21.40;61.91;98704.06;5068431;28;20040;-71
2023/07/30 07:29:33;;;;;;;3.42;1.60;;;;;;;21.37;61.82;98690.91;5050818;28;20115;-70
2023/07/30 07:32:00;;;;;;;3.40;2.38;;;;;;;21.36;62.55;98700.03;5068639;28;20060;-70
2023/07/30 07:34:26;;;;;;;2.58;1.73;;;;;;;21.23;61.87;98685.38;5068761;28;20037;-71
2023/07/30 07:36:55;;;;;;;2.92;1.63;;;;;;;21.30;61.83;98708.78;5067808;28;20225;-70
2023/07/30 07:39:21;;;;;;;2.70;1.90;;;;;;;20.69;61.92;98602.31;5051188;28;20048;-70
2023/07/30 07:41:48;;;;;;;2.63;1.50;;;;;;;21.04;62.54;98651.50;5068393;28;20095;-71
2023/07/30 07:44:15;;;;;;;2.92;1.70;;;;;;;21.38;61.58;98699.84;5051356;28;20044;-71
2023/07/30 07:46:42;;;;;;;3.25;1.83;;;;;;;21.38;61.93;98705.25;5067669;28;20154;-71
2023/07/30 07:49:09;;;;;;;2.80;2.10;;;;;;;21.39;61.19;98707.75;5068076;28;20134;-71
2023/07/30 07:51:36;;;;;;;2.70;1.67;;;;;;;21.44;60.73;98716.19;5068303;28;20185;-70
2023/07/30 07:54:04;;;;;;;2.60;1.90;;;;;;;21.24;60.61;98695.13;5050309;28;20045;-70
2023/07/30 07:56:31;;;;;;;2.53;1.70;;;;;;;21.40;60.63;98719.38;5067280;28;20204;-71
2023/07/30 07:58:58;;;;;;;2.92;2.08;;;;;;;21.34;61.18;98728.16;5049639;28;20045;-71
2023/07/30 08:01:25;;;;;;;2.78;2.08;;;;;;;21.15;60.87;98696.97;5067685;28;20052;-70
2023/07/30 08:03:52;;;;;;;2.65;1.70;;;;;;;21.38;61.06;98732.19;5050042;28;20315;-71
2023/07/30 08:06:19;;;;;;;2.50;1.70;;;;;;;21.13;61.03;98699.84;5067425;28;20045;-70
2023/07/30 08:08:46;;;;;;;2.80;1.70;;;;;;;21.34;61.24;98734.38;5050603;28;20045;-70
2023/07/30 08:11:14;;;;;;;3.00;2.17;;;;;;;21.34;61.83;98739.78;5050665;28;20037;-71
2023/07/30 08:13:41;;;;;;;2.78;1.92;;;;;;;20.26;61.22;98568.44;5067527;28;20347;-70
2023/07/30 08:16:08;;;;;;;2.75;1.80;;;;;;;21.20;61.51;98720.72;5050042;28;20315;-71
2023/07/30 08:18:34;;;;;;;3.45;2.00;;;;;;;21.34;61.69;98747.84;5050761;28;20037;-70
2023/07/30 08:21:03;;;;;;;3.17;1.98;;;;;;;21.05;61.43;98685.53;5067436;28;20037;-70
2023/07/30 08:23:29;;;;;;;3.33;2.00;;;;;;;20.94;61.93;98657.03;5067308;28;20055;-70
2023/07/30 08:25:56;;;;;;;3.15;2.00;;;;;;;21.23;61.27;98702.38;5067258;28;20037;-71
2023/07/30 08:28:25;;;;;;;3.85;2.30;;;;;;;21.52;61.45;98754.94;5066560;28;20041;-70
2023/07/30 08:30:51;;;;;;;2.95;2.00;;;;;;;21.60;61.16;98761.16;5050179;28;20304;-72
2023/07/30 08:33:18;;;;;;;3.05;2.10;;;;;;;21.24;61.45;98717.53;5049577;28;20053;-70
2023/07/30 08:35:45;;;;;;;3.20;2.10;;;;;;;21.62;61.25;98752.91;5067301;28;20044;-70
2023/07/30 08:38:12;;;;;;;3.45;2.10;;;;;;;21.73;61.06;98749.88;5067034;28;20053;-70
2023/07/30 08:40:40;;;;;;;3.58;2.70;;;;;;;21.56;60.87;98718.53;5067458;28;20037;-70
2023/07/30 08:43:06;;;;;;;3.67;2.30;;;;;;;21.83;60.69;98749.72;5067054;28;20289;-70
2023/07/30 08:45:35;;;;;;;2.97;2.00;;;;;;;21.84;60.81;98754.09;5049815;28;20044;-70
2023/07/30 08:48:01;;;;;;;2.83;1.98;;;;;;;21.90;60.55;98745.34;5067008;28;20049;-70
2023/07/30 08:50:29;;;;;;;3.00;2.20;;;;;;;21.61;60.63;98689.22;5067125;28;20032;-71
2023/07/30 08:52:58;;;;;;;3.28;2.38;;;;;;;22.01;60.57;98748.50;5049110;28;20068;-70
2023/07/30 08:55:26;;;;;;;3.50;2.30;;;;;;;22.09;60.33;98744.94;5066611;28;20045;-70
2023/07/30 08:57:55;;;;;;;3.10;2.30;;;;;;;22.18;60.37;98727.72;5067092;28;20236;-71
2023/07/30 09:00:25;;;;;;;3.30;2.33;;;;;;;22.46;60.57;98724.63;5049887;28;20148;-70
2023/07/30 09:02:56;;;;;;;3.13;2.35;;;;;;;22.52;59.25;98729.31;5066560;28;20106;-70
2023/07/30 09:05:23;;;;;;;3.70;2.60;;;;;;;22.77;59.39;98721.97;5032628;28;20048;-71
2023/07/30 09:07:50;;;;;;;2.90;2.00;;;;;;;23.09;58.59;98720.91;5066322;28;20087;-70
2023/07/30 09:10:17;;;;;;;3.80;2.50;;;;;;;22.96;56.39;98689.91;5066099;28;20072;-71
2023/07/30 09:12:43;;;;;;;2.80;1.80;;;;;;;23.13;55.01;98712.28;5048813;28;20091;-70
2023/07/30 09:15:10;;;;;;;2.88;1.95;;;;;;;22.84;54.56;98677.00;5066833;28;20317;-70
2023/07/30 09:17:37;;;;;;;3.30;2.05;;;;;;;23.15;55.03;98723.75;5066560;28;20041;-72
2023/07/30 09:20:07;;;;;;;3.00;2.20;;;;;;;22.47;53.35;98619.13;5032344;28;20037;-70
2023/07/30 09:22:38;;;;;;;3.00;1.90;;;;;;;23.19;53.25;98724.22;5048693;28;20040;-71
2023/07/30 09:25:06;;;;;;;3.78;1.98;;;;;;;23.43;52.75;98702.44;5045220;28;20053;-70
2023/07/30 09:27:35;;;;;;;2.50;1.85;;;;;;;23.41;52.92;98699.06;5046109;28;20205;-70
2023/07/30 09:30:05;;;;;;;2.90;2.00;;;;;;;23.43;52.95;98696.19;5045116;28;20328;-71
2023/07/30 09:32:33;;;;;;;2.78;1.90;;;;;;;23.48;53.14;98696.47;5045132;28;20040;-72
2023/07/30 09:35:07;;;;;;;3.40;2.30;;;;;;;23.56;53.16;98689.13;5046061;28;20045;-71
2023/07/30 09:37:36;;;;;;;;;;;;;;;23.57;52.64;98689.97;5046506;28;20056;-71
2023/07/30 09:40:04;;;;;;;3.00;1.90;;;;;;;22.87;52.79;98587.50;5045370;28;20232;-71
2023/07/30 09:42:33;;;;;;;2.63;1.80;;;;;;;23.49;52.78;98690.88;5045721;28;20309;-72
2023/07/30 09:45:00;;;;;;;2.88;2.20;;;;;;;23.49;52.75;98680.06;5046387;28;20078;-71
2023/07/30 09:47:27;;;;;;;3.03;1.70;;;;;;;23.24;52.16;98648.84;5045915;28;20103;-71
2023/07/30 09:49:55;;;;;;;3.38;1.67;;;;;;;23.47;51.77;98681.28;5045380;28;20303;-71
2023/07/30 09:52:23;;;;;;;3.50;1.80;;;;;;;23.59;51.42;98682.50;5046332;28;20104;-70
2023/07/30 09:54:51;;;;;;;3.17;2.10;;;;;;;23.86;50.78;98681.06;5046067;28;20065;-71
2023/07/30 09:57:18;;;;;;;2.80;1.85;;;;;;;23.48;50.37;98602.66;5046034;28;20068;-71
2023/07/30 09:59:45;;;;;;;3.33;2.00;;;;;;;23.93;50.14;98677.41;5045140;28;20037;-71
2023/07/30 10:02:13;;;;;;;3.05;2.20;;;;;;;23.74;50.07;98672.56;5046068;28;20048;-70
2023/07/30 10:04:44;;;;;;;2.67;1.90;;;;;;;23.20;49.81;98593.47;5044707;28;20116;-71
2023/07/30 10:07:17;;;;;;;2.53;1.75;;;;;;;23.73;49.57;98665.47;5045606;28;20038;-69
2023/07/30 10:09:48;;;;;;;3.55;2.00;;;;;;;23.79;49.71;98663.88;5044153;28;20049;-70
2023/07/30 10:12:17;;;;;;;2.78;1.83;;;;;;;23.07;49.87;98569.75;5044861;28;20216;-71
2023/07/30 10:14:44;;;;;;;2.80;1.90;;;;;;;23.77;49.59;98663.22;5045504;28;20108;-72
2023/07/30 10:17:12;;;;;;;2.75;1.85;;;;;;;23.66;50.38;98667.22;5045014;28;20238;-70
2023/07/30 10:19:39;;;;;;;3.17;1.70;;;;;;;22.70;50.21;98532.78;5045170;28;20045;-71
2023/07/30 10:22:24;;;;;;;2.65;1.98;;;;;;;23.55;50.15;98676.63;5044277;28;20056;-70
2023/07/30 10:24:59;;;;;;;2.80;1.88;;;;;;;23.47;50.22;98652.38;5044462;28;20057;-67
2023/07/30 10:27:36;;;;;;;2.60;1.80;;;;;;;23.74;50.15;98658.19;5044960;28;20052;-67
2023/07/30 10:30:11;;;;;;;2.72;1.90;;;;;;;23.77;51.35;98639.72;5044943;28;20037;-68
2023/07/30 10:32:42;;;;;;;3.67;1.98;;;;;;;23.94;51.55;98660.16;5045315;28;20045;-69
2023/07/30 10:35:09;;;;;;;4.90;2.00;;;;;;;23.88;54.14;98649.25;5045816;28;20045;-67
2023/07/30 10:37:36;;;;;;;2.83;2.03;;;;;;;23.52;54.57;98614.78;5044743;28;20037;-67
2023/07/30 10:40:18;;;;;;;2.95;2.10;;;;;;;23.72;55.26;98660.22;5045256;28;20056;-68
2023/07/30 10:42:45;;;;;;;3.00;1.85;;;;;;;23.73;56.96;98662.75;5045281;28;20046;-70
2023/07/30 10:45:12;;;;;;;3.00;1.90;;;;;;;23.42;55.62;98626.91;5045721;28;20053;-69
2023/07/30 10:47:41;;;;;;;5.25;2.60;;;;;;;23.74;57.60;98680.66;5044313;28;20037;-69
2023/07/30 10:50:11;;;;;;;3.85;2.50;;;;;;;23.64;59.04;98693.63;5045603;28;20041;-69
2023/07/30 10:52:38;;;;;;;4.55;2.72;;;;;;;23.61;63.18;98702.09;5045702;28;20049;-69
2023/07/30 10:55:06;;;;;;;6.47;3.60;;;;;;;23.50;66.01;98706.09;5045369;28;20045;-69
2023/07/30 10:57:34;;;;;;;5.88;3.38;;;;;;;23.49;67.94;98711.69;5045312;28;20053;-69
2023/07/30 11:00:01;;;;;;;4.18;2.53;;;;;;;23.42;66.84;98706.16;5045264;28;20046;-69
2023/07/30 11:02:32;;;;;;;6.45;3.45;;;;;;;23.47;67.22;98708.31;5044695;28;20088;-70
2023/07/30 11:05:12;;;;;;;3.55;2.53;;;;;;;22.91;67.70;98610.44;5045200;28;20045;-68
2023/07/30 11:07:39;;;;;;;5.00;2.58;;;;;;;23.24;67.26;98706.44;5045008;28;20351;-71
2023/07/30 11:10:06;;;;;;;3.45;2.70;;;;;;;23.30;68.55;98694.94;5028185;28;20046;-72
2023/07/30 11:12:34;;;;;;;6.20;2.17;;;;;;;23.24;67.40;98695.63;5045533;28;20042;-71
2023/07/30 11:15:02;;;;;;;4.85;2.55;;;;;;;23.26;68.77;98700.84;5044106;28;20052;-71
2023/07/30 11:17:32;;;;;;;3.90;2.53;;;;;;;23.39;69.33;98692.16;5045167;28;20120;-71
2023/07/30 11:19:58;;;;;;;5.45;3.10;;;;;;;23.52;69.09;98678.84;5045469;28;20049;-71
2023/07/30 11:22:32;;;;;;;3.85;2.95;;;;;;;22.97;66.00;98582.69;5045094;28;20076;-71
2023/07/30 11:25:01;;;;;;;4.43;2.90;;;;;;;23.73;65.15;98681.69;5043808;28;20046;-71
2023/07/30 11:27:28;;;;;;;3.83;2.40;;;;;;;23.69;63.78;98678.53;5045125;28;20053;-71
2023/07/30 11:29:57;;;;;;;3.28;2.42;;;;;;;22.98;63.70;98570.84;5044778;28;20045;-70
2023/07/30 11:32:25;;;;;;;3.10;2.33;;;;;;;22.53;61.91;98498.78;5046099;28;20083;-71
2023/07/30 11:34:53;;;;;;;5.22;4.18;;;;;;;23.63;62.04;98611.63;5047885;28;20041;-71